Terminal Aerodrome Forecast
Issued by NWS

Home | Current Version | Previous Version | Text Only | Print | Product List | Glossary Off
Versions: 1 2 3 4 5 6 7 8 9 10 11 12 13 14 15 16 17 18 19 20 21 22 23 24 25

000
FTUS43 KLOT 181512 AAA
TAFGYY
TAF AMD
KGYY 181512Z 1815/1912 36022G34KT 2SM RA BR BKN006 OVC012
     FM182200 34022G33KT 4SM -RA BKN015 OVC025
     FM190000 33018G28KT P6SM BKN025
     FM190700 32013G20KT P6SM SCT025=

USA.gov is the U.S. government's official web portal to all federal, state and local government web resources and services.